Aeroporto :
LOGIN :

Iscrizione | Disclaimer

   EN    FR    IT 

 










Sommario :    VFR   VFR Marginale   IFR   IFR Intensivo   IFR Molto Intensivo
Visibilità : 
Base nubi : 
>= 8 km
>= 3000ft
5 / 8 km
1000 / 3000 ft
1500m / 5 km
500 / 1000 ft
800 / 1500m
200 / 500 ft
< 800m
< 200 ft
Simboli :   Temporali  Nebbia  Neve Forte  Precipitazioni Forti  Vento > 20 kt
SIGMETs :   Varie  Temporali  Ghiacco  Turbolenza  Onda orograficha  Ceneri Vulcaniche






- Altitudine del aeroporto : 147 ft
- Codice IATA : DUS


EDDL - Düsseldorf Int.

ULTIMO METAR :
  • 071650Z AUTO 22007KT CAVOK 15/08 Q1019 NOSIG

METARs OBSOLETI :
  • 071620Z AUTO 23008KT CAVOK 15/08 Q1019 NOSIG
  • 071550Z AUTO 23010KT CAVOK 16/08 Q1019 NOSIG
  • 071520Z AUTO 24008KT CAVOK 18/07 Q1019
  • 071450Z AUTO 23009KT CAVOK 18/08 Q1020 NOSIG
  • 071420Z AUTO 20010KT CAVOK 18/08 Q1020 NOSIG
  • 071350Z AUTO 22010KT 190V250 CAVOK 18/08 Q1020 NOSIG

TAF TAF EDDL
Valido dal 07 a 12 ore il 08 a 18 ore UTC


071100Z 0712/0818 20008KT CAVOK
TEMPO 0712/0716 22013KT
TEMPO 0805/0807 22015KT SHRA BKN012TCU
BECMG 0808/0811 28011KT
BECMG 0815/0818 28006KT



MetMap, La meteo Aeronautica in un colpo d'occhio ! - Copyright ORBIFLY Dicembre 2007 - Disclaimer

ORBIFLY MET'MAP TEAM :

Programmazione e sviluppo : Alexandra Zaïnal
Concezione : Baudouin d'Aumeries
Supporto tecnico e logistico : Manuel Goepfert
Aiuto : Marc-Olivier Méhu
Aiuto per la traduzione : Arnaldo La Scala




FONTI E CREDITI :

   NOAA